createdAt,value
2022-09-28T00:00:47.882Z,94357.72
2022-09-28T00:03:14.513Z,94357.53
2022-09-28T00:05:41.149Z,94359.69
2022-09-28T00:08:07.857Z,94352.88
2022-09-28T00:10:34.850Z,94356.47
2022-09-28T00:13:01.892Z,94359.03
2022-09-28T00:15:29.245Z,94352.06
2022-09-28T00:17:55.877Z,94341.25
2022-09-28T00:20:22.823Z,94352.06
2022-09-28T00:22:49.677Z,94345.69
2022-09-28T00:25:17.052Z,94348.06
2022-09-28T00:27:43.819Z,94350.03
2022-09-28T00:30:10.617Z,94351.38
2022-09-28T00:32:37.293Z,94345.56
2022-09-28T00:35:04.101Z,94342.38
2022-09-28T00:37:30.773Z,94334.84
2022-09-28T00:39:57.483Z,94348.06
2022-09-28T00:42:26.597Z,94331.25
2022-09-28T00:44:57.854Z,94332.06
2022-09-28T00:47:27.519Z,94334.28
2022-09-28T00:50:08.926Z,94332.69
2022-09-28T00:52:53.257Z,94338.69
2022-09-28T00:55:26.736Z,94336.09
2022-09-28T00:58:00.884Z,94332.69
2022-09-28T01:00:27.793Z,94342.13
2022-09-28T01:02:54.820Z,94331.72
2022-09-28T01:05:24.272Z,94328.94
2022-09-28T01:07:51.203Z,94330.56
2022-09-28T01:10:18.410Z,94324.09
2022-09-28T01:12:45.226Z,94331.28
2022-09-28T01:15:12.158Z,94327.69
2022-09-28T01:17:57.358Z,94324.47
2022-09-28T01:21:03.389Z,94323.28
2022-09-28T01:23:50.286Z,94319.44
2022-09-28T01:26:35.348Z,94306.81
2022-09-28T01:29:11.071Z,94314.03
2022-09-28T01:31:44.674Z,94313.78
2022-09-28T01:34:19.109Z,94303.53
2022-09-28T01:36:50.772Z,94301.53
2022-09-28T01:39:32.974Z,94300.13
2022-09-28T01:42:07.036Z,94297.34
2022-09-28T01:44:39.924Z,94289.72
2022-09-28T01:47:12.478Z,94285.69
2022-09-28T01:49:47.730Z,94278.72
2022-09-28T01:52:21.646Z,94279.50
2022-09-28T01:54:55.323Z,94281.50
2022-09-28T01:57:27.297Z,94272.09
2022-09-28T02:00:13.428Z,94270.91
2022-09-28T02:03:07.037Z,94273.50
2022-09-28T02:05:48.282Z,94265.72
2022-09-28T02:08:26.955Z,94257.91
2022-09-28T02:11:16.807Z,94254.69
2022-09-28T02:13:50.007Z,94257.06
2022-09-28T02:16:20.772Z,94248.66
2022-09-28T02:18:50.003Z,94245.63
2022-09-28T02:21:24.383Z,94241.81
2022-09-28T02:24:02.557Z,94242.00
2022-09-28T02:26:35.953Z,94235.19
2022-09-28T02:29:02.732Z,94233.41
2022-09-28T02:31:29.528Z,94233.78
2022-09-28T02:33:57.949Z,94237.75
2022-09-28T02:36:26.739Z,94241.34
2022-09-28T02:38:53.920Z,94246.38
2022-09-28T02:41:20.636Z,94260.09
2022-09-28T02:44:02.685Z,94261.69
2022-09-28T02:46:47.841Z,94263.69
2022-09-28T02:49:36.052Z,94260.47
2022-09-28T02:52:30.455Z,94256.06
2022-09-28T02:55:18.180Z,94252.47
2022-09-28T02:58:03.609Z,94247.69
2022-09-28T03:00:32.897Z,94226.88
2022-09-28T03:03:20.981Z,94225.69
2022-09-28T03:05:54.399Z,94227.91
2022-09-28T03:08:29.979Z,94228.50
2022-09-28T03:11:09.579Z,94209.94
2022-09-28T03:13:37.200Z,94202.75
2022-09-28T03:16:16.261Z,94202.34
2022-09-28T03:18:45.425Z,94209.31
2022-09-28T03:21:13.705Z,94198.13
2022-09-28T03:23:42.029Z,94188.50
2022-09-28T03:26:11.348Z,94189.72
2022-09-28T03:28:37.980Z,94198.09
2022-09-28T03:31:06.332Z,94204.06
2022-09-28T03:33:33.229Z,94196.47
2022-09-28T03:36:00.049Z,94194.06
2022-09-28T03:38:26.757Z,94183.84
2022-09-28T03:40:59.047Z,94182.22
2022-09-28T03:43:29.859Z,94179.97
2022-09-28T03:46:00.939Z,94179.97
2022-09-28T03:48:34.415Z,94173.97
2022-09-28T03:51:05.435Z,94181.16
2022-09-28T03:53:32.857Z,94169.97
2022-09-28T03:56:06.405Z,94162.19
2022-09-28T03:58:33.646Z,94167.53
2022-09-28T04:01:06.590Z,94161.16
2022-09-28T04:03:34.098Z,94157.94
2022-09-28T04:06:01.232Z,94154.50
2022-09-28T04:08:28.286Z,94147.53
2022-09-28T04:10:59.442Z,94143.34
2022-09-28T04:13:26.356Z,94138.28
2022-09-28T04:15:57.814Z,94126.28
2022-09-28T04:18:25.796Z,94124.69
2022-09-28T04:21:10.281Z,94120.91
2022-09-28T04:23:41.664Z,94121.72
2022-09-28T04:26:16.727Z,94123.50
2022-09-28T04:29:12.323Z,94114.53
2022-09-28T04:31:41.119Z,94109.16
2022-09-28T04:34:08.175Z,94115.13
2022-09-28T04:36:35.101Z,94106.34
2022-09-28T04:39:02.143Z,94106.53
2022-09-28T04:41:31.069Z,94103.94
2022-09-28T04:43:57.807Z,94099.94
2022-09-28T04:46:26.254Z,94107.50
2022-09-28T04:49:10.139Z,94101.09
2022-09-28T04:51:47.178Z,94100.69
2022-09-28T04:54:13.828Z,94094.50
2022-09-28T04:56:41.947Z,94096.31
2022-09-28T04:59:08.696Z,94091.28
2022-09-28T05:01:36.570Z,94095.31
2022-09-28T05:04:26.024Z,94086.72
2022-09-28T05:07:04.127Z,94077.16
2022-09-28T05:09:33.979Z,94069.59
2022-09-28T05:12:04.476Z,94071.63
2022-09-28T05:14:33.537Z,94052.44
2022-09-28T05:17:00.402Z,94043.81
2022-09-28T05:19:27.416Z,94032.03
2022-09-28T05:22:04.072Z,94029.63
2022-09-28T05:24:36.132Z,94044.66
2022-09-28T05:27:02.893Z,94030.25
2022-09-28T05:29:32.198Z,94027.31
2022-09-28T05:32:44.490Z,94038.09
2022-09-28T05:35:19.472Z,94037.31
2022-09-28T05:37:47.695Z,94030.13
2022-09-28T05:40:15.018Z,94014.53
2022-09-28T05:42:42.303Z,94006.53
2022-09-28T05:45:10.339Z,94015.38
2022-09-28T05:47:41.135Z,94018.53
2022-09-28T05:50:11.985Z,94019.72
2022-09-28T05:52:39.775Z,94018.53
2022-09-28T05:55:08.304Z,94018.97
2022-09-28T05:57:35.343Z,94009.38
2022-09-28T06:00:09.038Z,94010.38
2022-09-28T06:03:00.104Z,94008.41
2022-09-28T06:05:28.816Z,93997.38
2022-09-28T06:07:57.824Z,94004.97
2022-09-28T06:10:26.043Z,94011.34
2022-09-28T06:12:57.789Z,94008.97
2022-09-28T06:15:29.015Z,94009.13
2022-09-28T06:18:01.807Z,94006.38
2022-09-28T06:20:42.903Z,94003.94
2022-09-28T06:23:17.275Z,94008.16
2022-09-28T06:25:44.044Z,94005.94
2022-09-28T06:28:13.193Z,94008.97
2022-09-28T06:30:41.445Z,94022.94
2022-09-28T06:33:12.734Z,94018.13
2022-09-28T06:35:40.757Z,94016.94
2022-09-28T06:38:08.347Z,94011.16
2022-09-28T06:40:35.264Z,94005.53
2022-09-28T06:43:10.068Z,94003.75
2022-09-28T06:45:55.600Z,93996.56
2022-09-28T06:48:44.140Z,93986.78
2022-09-28T06:51:15.132Z,93985.38
2022-09-28T06:53:57.079Z,93982.56
2022-09-28T06:56:50.164Z,93983.00
2022-09-28T06:59:18.772Z,93978.59
2022-09-28T07:01:45.618Z,93980.22
2022-09-28T07:04:31.460Z,93984.81
2022-09-28T07:07:16.915Z,93976.03
2022-09-28T07:10:03.582Z,93980.22
2022-09-28T07:13:14.160Z,93977.78
2022-09-28T07:15:48.333Z,93977.78
2022-09-28T07:18:18.358Z,93976.59
2022-09-28T07:20:53.880Z,93975.19
2022-09-28T07:23:21.567Z,93970.97
2022-09-28T07:26:09.045Z,93974.00
2022-09-28T07:29:05.623Z,93979.97
2022-09-28T07:31:40.303Z,93973.00
2022-09-28T07:34:25.797Z,93978.19
2022-09-28T07:37:00.374Z,93973.41
2022-09-28T07:39:27.968Z,93976.19
2022-09-28T07:41:59.641Z,93982.41
2022-09-28T07:44:29.880Z,93980.22
2022-09-28T07:46:57.699Z,93971.03
2022-09-28T07:49:36.462Z,93962.41
2022-09-28T07:52:14.984Z,93967.22
2022-09-28T07:55:04.615Z,93962.81
2022-09-28T07:58:08.661Z,93973.59
2022-09-28T08:01:07.946Z,93953.00
2022-09-28T08:03:35.597Z,93959.03
2022-09-28T08:06:07.129Z,93958.44
2022-09-28T08:08:35.127Z,93957.59
2022-09-28T08:11:02.583Z,93962.63
2022-09-28T08:14:02.574Z,93963.41
2022-09-28T08:16:54.004Z,93975.44
2022-09-28T08:19:58.019Z,93965.03
2022-09-28T08:22:24.806Z,93965.22
2022-09-28T08:24:54.300Z,93977.84
2022-09-28T08:27:21.087Z,93973.03
2022-09-28T08:29:48.084Z,93978.03
2022-09-28T08:32:37.559Z,93980.63
2022-09-28T08:35:26.288Z,93984.63
2022-09-28T08:38:31.095Z,93977.41
2022-09-28T08:41:18.960Z,93988.63
2022-09-28T08:44:15.000Z,93975.00
2022-09-28T08:47:06.087Z,93975.59
2022-09-28T08:49:47.419Z,93973.38
2022-09-28T08:52:40.219Z,93970.53
2022-09-28T08:55:32.699Z,93972.75
2022-09-28T08:58:09.408Z,93974.13
2022-09-28T09:00:47.379Z,93976.97
2022-09-28T09:03:18.412Z,93979.97
2022-09-28T09:06:14.275Z,93987.78
2022-09-28T09:09:19.530Z,93987.38
2022-09-28T09:12:01.653Z,93982.56
2022-09-28T09:14:53.742Z,93988.75
2022-09-28T09:17:42.248Z,93987.38
2022-09-28T09:20:50.685Z,93989.75
2022-09-28T09:23:39.331Z,93985.75
2022-09-28T09:26:23.803Z,93993.97
2022-09-28T09:29:04.013Z,93988.97
2022-09-28T09:31:42.902Z,93988.97
2022-09-28T09:34:32.699Z,93994.97
2022-09-28T09:37:34.698Z,94004.97
2022-09-28T09:40:53.066Z,94001.94
2022-09-28T09:44:04.673Z,94002.56
2022-09-28T09:47:09.740Z,94006.59
2022-09-28T09:50:08.419Z,94014.41
2022-09-28T09:52:49.583Z,94028.66
2022-09-28T09:55:30.364Z,94031.44
2022-09-28T09:58:32.700Z,94039.06
2022-09-28T10:01:19.222Z,94035.06
2022-09-28T10:04:24.073Z,94038.88
2022-09-28T10:06:58.835Z,94030.28
2022-09-28T10:09:46.583Z,94036.47
2022-09-28T10:12:36.426Z,94036.88
2022-09-28T10:15:07.753Z,94033.47
2022-09-28T10:17:46.724Z,94037.28
2022-09-28T10:20:37.248Z,94035.47
2022-09-28T10:23:34.017Z,94046.44
2022-09-28T10:26:07.558Z,94048.66
2022-09-28T10:28:43.003Z,94060.25
2022-09-28T10:31:34.378Z,94060.66
2022-09-28T10:34:02.395Z,94057.41
2022-09-28T10:36:29.268Z,94060.81
2022-09-28T10:38:56.687Z,94068.44
2022-09-28T10:41:27.873Z,94058.44
2022-09-28T10:44:07.368Z,94063.41
2022-09-28T10:47:00.994Z,94064.84
2022-09-28T10:49:46.544Z,94069.88
2022-09-28T10:52:36.473Z,94072.09
2022-09-28T10:55:26.133Z,94081.91
2022-09-28T10:57:53.314Z,94088.69
2022-09-28T11:00:42.310Z,94092.72
2022-09-28T11:03:25.950Z,94099.53
2022-09-28T11:06:07.532Z,94098.75
2022-09-28T11:08:39.666Z,94104.34
2022-09-28T11:11:17.009Z,94097.53
2022-09-28T11:13:55.929Z,94102.13
2022-09-28T11:16:35.013Z,94112.97
2022-09-28T11:19:28.010Z,94111.75
2022-09-28T11:21:54.788Z,94109.97
2022-09-28T11:24:29.283Z,94111.56
2022-09-28T11:27:01.865Z,94108.34
2022-09-28T11:29:41.888Z,94110.31
2022-09-28T11:32:44.876Z,94107.44
2022-09-28T11:35:28.438Z,94102.59
2022-09-28T11:38:01.925Z,94115.31
2022-09-28T11:41:17.391Z,94108.03
2022-09-28T11:44:07.782Z,94113.81
2022-09-28T11:46:34.540Z,94113.63
2022-09-28T11:49:13.862Z,94120.84
2022-09-28T11:51:44.298Z,94110.69
2022-09-28T11:54:14.658Z,94128.59
2022-09-28T11:56:47.365Z,94124.03
2022-09-28T11:59:44.355Z,94132.88
2022-09-28T12:02:23.539Z,94138.25
2022-09-28T12:04:58.628Z,94131.03
2022-09-28T12:07:36.909Z,94136.84
2022-09-28T12:10:21.463Z,94129.41
2022-09-28T12:13:01.335Z,94137.41
2022-09-28T12:16:17.186Z,94140.66
2022-09-28T12:19:02.387Z,94128.66
2022-09-28T12:21:35.403Z,94140.72
2022-09-28T12:24:17.819Z,94143.78
2022-09-28T12:26:54.405Z,94139.97
2022-09-28T12:29:28.398Z,94157.25
2022-09-28T12:32:13.983Z,94158.88
2022-09-28T12:34:43.032Z,94162.25
2022-09-28T12:37:34.958Z,94159.06
2022-09-28T12:40:35.957Z,94160.03
2022-09-28T12:43:14.739Z,94165.25
2022-09-28T12:46:11.090Z,94170.22
2022-09-28T12:49:24.161Z,94167.78
2022-09-28T12:51:48.648Z,94167.72
2022-09-28T12:54:18.404Z,94176.44
2022-09-28T12:56:50.909Z,94167.31
2022-09-28T12:59:28.607Z,94162.00
2022-09-28T13:02:04.900Z,94166.91
2022-09-28T13:04:37.064Z,94167.06
2022-09-28T13:07:29.113Z,94173.53
2022-09-28T13:10:14.169Z,94171.81
2022-09-28T13:12:59.642Z,94175.19
2022-09-28T13:15:44.038Z,94178.00
2022-09-28T13:18:24.603Z,94178.34
2022-09-28T13:21:45.213Z,94188.28
2022-09-28T13:24:31.516Z,94180.72
2022-09-28T13:27:06.364Z,94184.22
2022-09-28T13:29:35.242Z,94187.41
2022-09-28T13:32:03.697Z,94185.72
2022-09-28T13:34:35.998Z,94188.59
2022-09-28T13:37:16.960Z,94185.78
2022-09-28T13:39:56.478Z,94187.84
2022-09-28T13:42:33.486Z,94192.28
2022-09-28T13:45:18.463Z,94189.75
2022-09-28T13:47:57.992Z,94197.09
2022-09-28T13:50:47.426Z,94194.59
2022-09-28T13:53:22.236Z,94193.78
2022-09-28T13:55:58.554Z,94196.13
2022-09-28T13:58:32.924Z,94199.31
2022-09-28T14:01:06.452Z,94194.72
2022-09-28T14:04:12.825Z,94197.03
2022-09-28T14:06:59.947Z,94200.91
2022-09-28T14:09:40.643Z,94199.88
2022-09-28T14:12:31.028Z,94204.94
2022-09-28T14:14:57.940Z,94204.66
2022-09-28T14:17:24.645Z,94214.91
2022-09-28T14:20:13.100Z,94216.53
2022-09-28T14:23:01.108Z,94220.13
2022-09-28T14:25:31.434Z,94213.81
2022-09-28T14:28:36.543Z,94207.31
2022-09-28T14:31:10.759Z,94215.75
2022-09-28T14:33:39.446Z,94212.94
2022-09-28T14:36:41.964Z,94208.75
2022-09-28T14:39:46.360Z,94207.66
2022-09-28T14:42:25.093Z,94217.16
2022-09-28T14:45:06.699Z,94228.09
2022-09-28T14:47:34.041Z,94229.28
2022-09-28T14:50:03.195Z,94228.09
2022-09-28T14:52:42.892Z,94233.88
2022-09-28T14:55:19.344Z,94231.88
2022-09-28T14:57:52.956Z,94233.84
2022-09-28T15:00:26.127Z,94236.28
2022-09-28T15:02:56.427Z,94240.09
2022-09-28T15:05:39.978Z,94235.94
2022-09-28T15:08:12.653Z,94246.38
2022-09-28T15:10:46.260Z,94243.94
2022-09-28T15:13:32.140Z,94246.81
2022-09-28T15:16:11.706Z,94245.38
2022-09-28T15:19:04.419Z,94243.19
2022-09-28T15:21:36.453Z,94238.56
2022-09-28T15:24:03.638Z,94235.38
2022-09-28T15:26:35.449Z,94244.88
2022-09-28T15:29:05.326Z,94248.09
2022-09-28T15:31:35.982Z,94247.66
2022-09-28T15:34:21.461Z,94257.34
2022-09-28T15:36:48.662Z,94262.38
2022-09-28T15:39:18.844Z,94261.00
2022-09-28T15:41:48.962Z,94265.84
2022-09-28T15:44:15.943Z,94276.69
2022-09-28T15:46:46.128Z,94280.91
2022-09-28T15:49:38.949Z,94286.34
2022-09-28T15:52:06.309Z,94283.13
2022-09-28T15:54:42.091Z,94286.16
2022-09-28T15:57:37.499Z,94288.94
2022-09-28T16:00:23.118Z,94294.38
2022-09-28T16:03:01.090Z,94300.38
2022-09-28T16:05:35.907Z,94303.59
2022-09-28T16:08:14.333Z,94300.38
2022-09-28T16:10:54.800Z,94310.44
2022-09-28T16:13:23.220Z,94318.47
2022-09-28T16:16:00.334Z,94320.28
2022-09-28T16:18:29.828Z,94313.06
2022-09-28T16:21:31.678Z,94317.25
2022-09-28T16:23:58.608Z,94326.88
2022-09-28T16:26:32.258Z,94326.69
2022-09-28T16:28:59.944Z,94334.91
2022-09-28T16:31:30.424Z,94335.31
2022-09-28T16:34:11.582Z,94337.72
2022-09-28T16:36:47.222Z,94334.72
2022-09-28T16:39:18.214Z,94346.34
2022-09-28T16:41:59.652Z,94345.94
2022-09-28T16:44:29.406Z,94335.72
2022-09-28T16:47:00.691Z,94344.50
2022-09-28T16:49:28.402Z,94346.94
2022-09-28T16:51:55.149Z,94348.16
2022-09-28T16:54:43.149Z,94349.16
2022-09-28T16:57:12.718Z,94360.16
2022-09-28T16:59:39.872Z,94362.38
2022-09-28T17:02:45.068Z,94361.75
2022-09-28T17:05:07.271Z,94366.72
2022-09-28T17:07:34.314Z,94365.72
2022-09-28T17:10:01.039Z,94369.31
2022-09-28T17:12:29.010Z,94374.53
2022-09-28T17:14:55.769Z,94383.34
2022-09-28T17:17:22.819Z,94387.72
2022-09-28T17:19:49.576Z,94383.69
2022-09-28T17:22:16.838Z,94382.50
2022-09-28T17:24:45.657Z,94391.31
2022-09-28T17:27:19.253Z,94394.09
2022-09-28T17:29:46.020Z,94394.09
2022-09-28T17:32:18.145Z,94400.09
2022-09-28T17:34:51.604Z,94406.13
2022-09-28T17:37:22.858Z,94407.88
2022-09-28T17:39:49.539Z,94406.47
2022-09-28T17:42:17.334Z,94405.84
2022-09-28T17:44:44.062Z,94414.47
2022-09-28T17:47:11.547Z,94415.47
2022-09-28T17:49:38.939Z,94423.06
2022-09-28T17:52:05.645Z,94418.25
2022-09-28T17:54:33.867Z,94421.25
2022-09-28T17:57:00.743Z,94422.06
2022-09-28T17:59:28.771Z,94418.44
2022-09-28T18:01:58.399Z,94413.84
2022-09-28T18:04:50.639Z,94414.91
2022-09-28T18:07:13.860Z,94417.72
2022-09-28T18:09:40.903Z,94421.75
2022-09-28T18:12:07.833Z,94420.34
2022-09-28T18:14:36.033Z,94414.75
2022-09-28T18:17:02.907Z,94421.56
2022-09-28T18:19:32.172Z,94420.97
2022-09-28T18:21:59.466Z,94423.16
2022-09-28T18:24:26.271Z,94426.97
2022-09-28T18:26:53.060Z,94423.50
2022-09-28T18:29:19.886Z,94431.50
2022-09-28T18:31:47.585Z,94435.94
2022-09-28T18:34:14.463Z,94432.91
2022-09-28T18:36:41.401Z,94435.69
2022-09-28T18:39:08.344Z,94438.50
2022-09-28T18:41:35.141Z,94437.09
2022-09-28T18:44:02.297Z,94437.09
2022-09-28T18:46:36.449Z,94450.09
2022-09-28T18:49:04.645Z,94441.06
2022-09-28T18:51:31.476Z,94440.28
2022-09-28T18:53:58.280Z,94436.66
2022-09-28T18:56:25.636Z,94441.69
2022-09-28T18:58:52.799Z,94442.06
2022-09-28T19:01:30.515Z,94442.84
2022-09-28T19:04:07.516Z,94446.22
2022-09-28T19:06:37.105Z,94442.38
2022-09-28T19:09:04.152Z,94446.78
2022-09-28T19:11:30.903Z,94443.94
2022-09-28T19:13:57.704Z,94447.09
2022-09-28T19:16:27.440Z,94447.50
2022-09-28T19:18:57.117Z,94451.09
2022-09-28T19:21:24.161Z,94455.13
2022-09-28T19:23:53.612Z,94455.72
2022-09-28T19:26:23.520Z,94451.94
2022-09-28T19:28:50.672Z,94449.97
2022-09-28T19:31:17.938Z,94451.75
2022-09-28T19:33:48.229Z,94452.09
2022-09-28T19:36:18.374Z,94453.94
2022-09-28T19:38:46.228Z,94453.13
2022-09-28T19:41:43.743Z,94460.13
2022-09-28T19:44:30.155Z,94449.50
2022-09-28T19:47:09.938Z,94456.25
2022-09-28T19:49:39.095Z,94462.44
2022-09-28T19:52:16.544Z,94459.47
2022-09-28T19:54:56.958Z,94473.66
2022-09-28T19:57:26.138Z,94468.28
2022-09-28T19:59:55.797Z,94470.25
2022-09-28T20:02:24.900Z,94473.84
2022-09-28T20:04:51.792Z,94477.63
2022-09-28T20:07:18.867Z,94477.44
2022-09-28T20:09:45.672Z,94481.03
2022-09-28T20:12:12.448Z,94483.22
2022-09-28T20:14:40.476Z,94484.59
2022-09-28T20:17:07.790Z,94481.38
2022-09-28T20:19:35.133Z,94489.53
2022-09-28T20:22:03.228Z,94492.16
2022-09-28T20:24:31.430Z,94493.34
2022-09-28T20:26:58.803Z,94498.47
2022-09-28T20:29:25.720Z,94501.84
2022-09-28T20:31:52.646Z,94498.59
2022-09-28T20:34:19.527Z,94500.78
2022-09-28T20:36:46.369Z,94501.53
2022-09-28T20:39:13.496Z,94503.06
2022-09-28T20:41:42.948Z,94501.03
2022-09-28T20:44:10.070Z,94499.22
2022-09-28T20:46:37.417Z,94512.41
2022-09-28T20:49:07.168Z,94510.59
2022-09-28T20:51:34.075Z,94516.19
2022-09-28T20:54:01.211Z,94517.00
2022-09-28T20:56:31.185Z,94522.03
2022-09-28T20:58:57.927Z,94521.75
2022-09-28T21:01:27.331Z,94526.34
2022-09-28T21:03:59.567Z,94522.19
2022-09-28T21:06:33.139Z,94521.84
2022-09-28T21:08:59.959Z,94532.88
2022-09-28T21:11:28.392Z,94530.25
2022-09-28T21:13:58.211Z,94528.22
2022-09-28T21:16:26.408Z,94529.81
2022-09-28T21:18:53.670Z,94533.84
2022-09-28T21:21:22.513Z,94534.47
2022-09-28T21:23:52.849Z,94530.06
2022-09-28T21:26:25.247Z,94535.91
2022-09-28T21:28:57.176Z,94532.66
2022-09-28T21:31:28.713Z,94533.47
2022-09-28T21:33:57.083Z,94532.66
2022-09-28T21:36:24.847Z,94542.28
2022-09-28T21:38:51.614Z,94539.47
2022-09-28T21:41:18.389Z,94544.50
2022-09-28T21:43:45.905Z,94549.88
2022-09-28T21:46:12.970Z,94543.44
2022-09-28T21:48:39.827Z,94546.41
2022-09-28T21:51:10.272Z,94547.56
2022-09-28T21:53:38.011Z,94545.78
2022-09-28T21:56:07.271Z,94549.72
2022-09-28T21:58:36.081Z,94551.09
2022-09-28T22:01:06.911Z,94554.69
2022-09-28T22:03:36.018Z,94556.84
2022-09-28T22:06:06.374Z,94555.59
2022-09-28T22:08:35.357Z,94556.78
2022-09-28T22:11:06.868Z,94555.16
2022-09-28T22:13:36.624Z,94549.53
2022-09-28T22:16:03.442Z,94559.66
2022-09-28T22:18:31.628Z,94559.19
2022-09-28T22:21:03.570Z,94561.00
2022-09-28T22:23:31.197Z,94563.75
2022-09-28T22:26:12.618Z,94557.63
2022-09-28T22:28:44.823Z,94563.41
2022-09-28T22:31:11.661Z,94560.81
2022-09-28T22:33:38.484Z,94552.03
2022-09-28T22:36:05.604Z,94555.97
2022-09-28T22:38:32.734Z,94558.56
2022-09-28T22:40:59.813Z,94566.72
2022-09-28T22:43:27.325Z,94556.06
2022-09-28T22:46:05.749Z,94558.84
2022-09-28T22:48:35.043Z,94558.03
2022-09-28T22:51:03.670Z,94561.09
2022-09-28T22:53:31.058Z,94561.38
2022-09-28T22:56:00.673Z,94559.94
2022-09-28T22:58:28.120Z,94566.91
2022-09-28T23:00:58.090Z,94568.72
2022-09-28T23:03:25.799Z,94570.31
2022-09-28T23:05:56.879Z,94563.34
2022-09-28T23:08:24.571Z,94565.75
2022-09-28T23:10:52.343Z,94556.97
2022-09-28T23:13:19.906Z,94564.78
2022-09-28T23:16:01.879Z,94560.56
2022-09-28T23:18:32.268Z,94557.97
2022-09-28T23:21:01.821Z,94563.53
2022-09-28T23:23:29.948Z,94565.75
2022-09-28T23:25:57.960Z,94565.31
2022-09-28T23:28:26.804Z,94555.09
2022-09-28T23:30:56.038Z,94554.13
2022-09-28T23:33:23.977Z,94554.47
2022-09-28T23:35:51.610Z,94560.66
2022-09-28T23:38:18.955Z,94562.81
2022-09-28T23:40:47.300Z,94563.59
2022-09-28T23:43:15.128Z,94562.63
2022-09-28T23:45:45.836Z,94556.63
2022-09-28T23:48:15.384Z,94559.56
2022-09-28T23:50:44.100Z,94560.03
2022-09-28T23:53:14.223Z,94557.41
2022-09-28T23:55:46.306Z,94562.00
2022-09-28T23:58:13.836Z,94561.53
